sensor_id;sensor_type;location;lat;lon;timestamp;pressure;altitude;pressure_sealevel;temperature;humidity
65013;BME280;51715;39.432;-77.518;2023-03-14T00:00:31;99020.08;;;9.38;30.50
65013;BME280;51715;39.432;-77.518;2023-03-14T00:02:59;99016.76;;;9.64;30.49
65013;BME280;51715;39.432;-77.518;2023-03-14T00:05:26;99017.41;;;8.45;32.08
65013;BME280;51715;39.432;-77.518;2023-03-14T00:07:55;99023.07;;;8.66;31.66
65013;BME280;51715;39.432;-77.518;2023-03-14T00:10:23;99024.93;;;8.98;31.18
65013;BME280;51715;39.432;-77.518;2023-03-14T00:12:52;99027.16;;;9.15;31.08
65013;BME280;51715;39.432;-77.518;2023-03-14T00:15:21;99027.69;;;9.01;31.62
65013;BME280;51715;39.432;-77.518;2023-03-14T00:17:50;99027.90;;;9.17;31.56
65013;BME280;51715;39.432;-77.518;2023-03-14T00:20:19;99032.24;;;9.06;31.16
65013;BME280;51715;39.432;-77.518;2023-03-14T00:22:48;99034.47;;;9.09;31.03
65013;BME280;51715;39.432;-77.518;2023-03-14T00:25:18;99036.87;;;9.34;31.16
65013;BME280;51715;39.432;-77.518;2023-03-14T00:27:46;99035.22;;;9.29;30.98
65013;BME280;51715;39.432;-77.518;2023-03-14T00:30:15;99036.19;;;9.22;31.28
65013;BME280;51715;39.432;-77.518;2023-03-14T00:32:44;99041.13;;;9.15;30.92
65013;BME280;51715;39.432;-77.518;2023-03-14T00:35:13;99045.06;;;8.69;31.28
65013;BME280;51715;39.432;-77.518;2023-03-14T00:37:41;99046.65;;;8.49;31.31
65013;BME280;51715;39.432;-77.518;2023-03-14T00:40:11;99042.90;;;8.65;31.26
65013;BME280;51715;39.432;-77.518;2023-03-14T00:42:40;99045.41;;;8.66;31.34
65013;BME280;51715;39.432;-77.518;2023-03-14T00:45:09;99046.82;;;7.88;31.86
65013;BME280;51715;39.432;-77.518;2023-03-14T00:47:38;99046.31;;;8.43;31.64
65013;BME280;51715;39.432;-77.518;2023-03-14T00:50:08;99055.19;;;7.98;32.04
65013;BME280;51715;39.432;-77.518;2023-03-14T00:52:38;99056.44;;;8.10;31.89
65013;BME280;51715;39.432;-77.518;2023-03-14T00:55:07;99061.78;;;8.29;31.68
65013;BME280;51715;39.432;-77.518;2023-03-14T00:57:37;99062.75;;;8.35;31.77
65013;BME280;51715;39.432;-77.518;2023-03-14T01:00:06;99067.99;;;8.00;31.84
65013;BME280;51715;39.432;-77.518;2023-03-14T01:02:34;99068.18;;;8.19;31.88
65013;BME280;51715;39.432;-77.518;2023-03-14T01:05:03;99067.66;;;8.27;32.16
65013;BME280;51715;39.432;-77.518;2023-03-14T01:07:32;99071.65;;;8.39;32.25
65013;BME280;51715;39.432;-77.518;2023-03-14T01:10:02;99070.70;;;8.26;32.05
65013;BME280;51715;39.432;-77.518;2023-03-14T01:12:31;99071.02;;;8.58;31.91
65013;BME280;51715;39.432;-77.518;2023-03-14T01:14:59;99072.65;;;8.69;32.15
65013;BME280;51715;39.432;-77.518;2023-03-14T01:17:28;99073.95;;;8.74;31.76
65013;BME280;51715;39.432;-77.518;2023-03-14T01:19:58;99076.90;;;8.75;31.95
65013;BME280;51715;39.432;-77.518;2023-03-14T01:22:28;99077.05;;;8.76;31.92
65013;BME280;51715;39.432;-77.518;2023-03-14T01:24:56;99080.48;;;8.43;31.87
65013;BME280;51715;39.432;-77.518;2023-03-14T01:27:25;99081.69;;;8.89;31.79
65013;BME280;51715;39.432;-77.518;2023-03-14T01:29:53;99084.91;;;8.91;31.41
65013;BME280;51715;39.432;-77.518;2023-03-14T01:32:21;99086.00;;;8.80;31.62
65013;BME280;51715;39.432;-77.518;2023-03-14T01:34:49;99085.39;;;8.79;31.67
65013;BME280;51715;39.432;-77.518;2023-03-14T01:37:18;99087.47;;;8.74;31.67
65013;BME280;51715;39.432;-77.518;2023-03-14T01:39:48;99090.10;;;8.79;31.65
65013;BME280;51715;39.432;-77.518;2023-03-14T01:42:16;99091.25;;;8.60;31.98
65013;BME280;51715;39.432;-77.518;2023-03-14T01:44:50;99099.60;;;8.77;31.99
65013;BME280;51715;39.432;-77.518;2023-03-14T01:47:19;99105.67;;;8.21;31.64
65013;BME280;51715;39.432;-77.518;2023-03-14T01:49:51;99105.80;;;7.20;33.17
65013;BME280;51715;39.432;-77.518;2023-03-14T01:52:25;99112.15;;;7.49;33.59
65013;BME280;51715;39.432;-77.518;2023-03-14T01:54:58;99122.22;;;7.42;32.89
65013;BME280;51715;39.432;-77.518;2023-03-14T01:57:32;99112.37;;;7.57;33.28
65013;BME280;51715;39.432;-77.518;2023-03-14T02:00:10;99111.80;;;7.70;33.60
65013;BME280;51715;39.432;-77.518;2023-03-14T02:02:40;99109.16;;;7.84;33.19
65013;BME280;51715;39.432;-77.518;2023-03-14T02:05:11;99107.64;;;8.12;33.42
65013;BME280;51715;39.432;-77.518;2023-03-14T02:07:43;99105.09;;;7.39;34.21
65013;BME280;51715;39.432;-77.518;2023-03-14T02:10:15;99108.08;;;5.86;37.31
65013;BME280;51715;39.432;-77.518;2023-03-14T02:12:45;99108.14;;;5.04;38.35
65013;BME280;51715;39.432;-77.518;2023-03-14T02:15:14;99108.93;;;6.02;37.64
65013;BME280;51715;39.432;-77.518;2023-03-14T02:17:44;99105.19;;;5.76;37.99
65013;BME280;51715;39.432;-77.518;2023-03-14T02:20:24;99106.34;;;5.84;37.15
65013;BME280;51715;39.432;-77.518;2023-03-14T02:22:56;99113.42;;;6.96;36.30
65013;BME280;51715;39.432;-77.518;2023-03-14T02:25:33;99108.87;;;6.61;36.86
65013;BME280;51715;39.432;-77.518;2023-03-14T02:28:05;99114.09;;;6.14;37.48
65013;BME280;51715;39.432;-77.518;2023-03-14T02:30:34;99113.25;;;6.85;37.03
65013;BME280;51715;39.432;-77.518;2023-03-14T02:33:05;99120.42;;;6.51;36.76
65013;BME280;51715;39.432;-77.518;2023-03-14T02:35:36;99120.97;;;7.06;36.07
65013;BME280;51715;39.432;-77.518;2023-03-14T02:38:11;99117.50;;;6.33;36.84
65013;BME280;51715;39.432;-77.518;2023-03-14T02:40:43;99121.94;;;5.84;38.34
65013;BME280;51715;39.432;-77.518;2023-03-14T02:43:13;99120.98;;;6.50;37.00
65013;BME280;51715;39.432;-77.518;2023-03-14T02:45:43;99111.63;;;5.72;38.17
65013;BME280;51715;39.432;-77.518;2023-03-14T02:48:16;99110.10;;;5.81;38.08
65013;BME280;51715;39.432;-77.518;2023-03-14T02:50:48;99107.69;;;6.48;37.07
65013;BME280;51715;39.432;-77.518;2023-03-14T02:53:24;99108.30;;;6.35;37.14
65013;BME280;51715;39.432;-77.518;2023-03-14T02:55:53;99112.82;;;5.79;38.05
65013;BME280;51715;39.432;-77.518;2023-03-14T02:58:22;99109.94;;;4.68;39.54
65013;BME280;51715;39.432;-77.518;2023-03-14T03:00:51;99108.58;;;5.94;37.82
65013;BME280;51715;39.432;-77.518;2023-03-14T03:03:21;99102.39;;;5.69;38.41
65013;BME280;51715;39.432;-77.518;2023-03-14T03:05:50;99103.13;;;5.67;37.55
65013;BME280;51715;39.432;-77.518;2023-03-14T03:08:21;99101.23;;;5.70;37.36
65013;BME280;51715;39.432;-77.518;2023-03-14T03:10:50;99098.49;;;6.30;36.47
65013;BME280;51715;39.432;-77.518;2023-03-14T03:13:19;99099.05;;;5.87;36.95
65013;BME280;51715;39.432;-77.518;2023-03-14T03:15:48;99094.98;;;6.04;36.41
65013;BME280;51715;39.432;-77.518;2023-03-14T03:18:17;99099.69;;;5.86;37.17
65013;BME280;51715;39.432;-77.518;2023-03-14T03:20:46;99097.75;;;6.39;36.46
65013;BME280;51715;39.432;-77.518;2023-03-14T03:23:15;99095.77;;;6.51;36.06
65013;BME280;51715;39.432;-77.518;2023-03-14T03:25:49;99093.53;;;5.65;37.32
65013;BME280;51715;39.432;-77.518;2023-03-14T03:28:18;99096.29;;;5.85;36.71
65013;BME280;51715;39.432;-77.518;2023-03-14T03:30:47;99097.91;;;5.42;36.83
65013;BME280;51715;39.432;-77.518;2023-03-14T03:33:15;99100.23;;;5.81;36.73
65013;BME280;51715;39.432;-77.518;2023-03-14T03:35:44;99103.44;;;4.72;36.88
65013;BME280;51715;39.432;-77.518;2023-03-14T03:38:14;99098.32;;;5.24;37.17
65013;BME280;51715;39.432;-77.518;2023-03-14T03:40:43;99096.34;;;5.29;35.73
65013;BME280;51715;39.432;-77.518;2023-03-14T03:43:12;99101.30;;;5.32;34.89
65013;BME280;51715;39.432;-77.518;2023-03-14T03:45:41;99097.84;;;4.58;34.56
65013;BME280;51715;39.432;-77.518;2023-03-14T03:48:10;99096.57;;;4.42;33.54
65013;BME280;51715;39.432;-77.518;2023-03-14T03:50:45;99099.74;;;4.21;33.36
65013;BME280;51715;39.432;-77.518;2023-03-14T03:53:14;99103.63;;;3.80;32.83
65013;BME280;51715;39.432;-77.518;2023-03-14T03:55:42;99107.80;;;3.00;33.48
65013;BME280;51715;39.432;-77.518;2023-03-14T03:58:11;99101.94;;;4.01;31.98
65013;BME280;51715;39.432;-77.518;2023-03-14T04:04:09;99100.80;;;4.98;30.07
65013;BME280;51715;39.432;-77.518;2023-03-14T04:06:38;99097.36;;;5.16;29.80
65013;BME280;51715;39.432;-77.518;2023-03-14T04:09:07;99102.70;;;5.01;29.23
65013;BME280;51715;39.432;-77.518;2023-03-14T04:11:36;99107.88;;;4.04;30.55
65013;BME280;51715;39.432;-77.518;2023-03-14T04:14:05;99114.31;;;3.98;30.55
65013;BME280;51715;39.432;-77.518;2023-03-14T04:16:33;99116.79;;;4.54;30.38
65013;BME280;51715;39.432;-77.518;2023-03-14T04:19:02;99120.12;;;4.13;29.68
65013;BME280;51715;39.432;-77.518;2023-03-14T04:21:30;99126.14;;;3.59;30.29
65013;BME280;51715;39.432;-77.518;2023-03-14T04:23:58;99126.48;;;3.21;31.16
65013;BME280;51715;39.432;-77.518;2023-03-14T04:26:27;99135.57;;;3.80;30.45
65013;BME280;51715;39.432;-77.518;2023-03-14T04:28:56;99138.04;;;2.85;31.37
65013;BME280;51715;39.432;-77.518;2023-03-14T04:31:24;99133.67;;;3.48;30.33
65013;BME280;51715;39.432;-77.518;2023-03-14T04:33:53;99130.58;;;3.48;30.57
65013;BME280;51715;39.432;-77.518;2023-03-14T04:36:21;99135.58;;;2.95;31.19
65013;BME280;51715;39.432;-77.518;2023-03-14T04:38:49;99139.64;;;3.27;30.00
65013;BME280;51715;39.432;-77.518;2023-03-14T04:41:17;99137.46;;;3.12;29.39
65013;BME280;51715;39.432;-77.518;2023-03-14T04:43:45;99136.63;;;2.01;31.56
65013;BME280;51715;39.432;-77.518;2023-03-14T04:46:14;99133.03;;;2.27;31.27
65013;BME280;51715;39.432;-77.518;2023-03-14T04:48:42;99123.70;;;1.42;32.81
65013;BME280;51715;39.432;-77.518;2023-03-14T04:51:10;99127.92;;;2.15;31.46
65013;BME280;51715;39.432;-77.518;2023-03-14T04:53:39;99121.28;;;2.82;30.64
65013;BME280;51715;39.432;-77.518;2023-03-14T04:56:08;99127.75;;;2.43;30.99
65013;BME280;51715;39.432;-77.518;2023-03-14T04:58:36;99126.99;;;2.32;30.59
65013;BME280;51715;39.432;-77.518;2023-03-14T05:01:12;99125.56;;;3.20;30.46
65013;BME280;51715;39.432;-77.518;2023-03-14T05:03:41;99125.78;;;2.97;30.06
65013;BME280;51715;39.432;-77.518;2023-03-14T05:06:10;99123.78;;;2.93;29.58
65013;BME280;51715;39.432;-77.518;2023-03-14T05:08:38;99123.08;;;3.01;29.70
65013;BME280;51715;39.432;-77.518;2023-03-14T05:11:09;99122.58;;;3.18;29.78
65013;BME280;51715;39.432;-77.518;2023-03-14T05:13:37;99126.92;;;3.80;28.95
65013;BME280;51715;39.432;-77.518;2023-03-14T05:16:07;99126.70;;;3.67;28.70
65013;BME280;51715;39.432;-77.518;2023-03-14T05:18:36;99128.08;;;3.78;28.79
65013;BME280;51715;39.432;-77.518;2023-03-14T05:21:05;99127.22;;;3.42;29.04
65013;BME280;51715;39.432;-77.518;2023-03-14T05:23:34;99118.11;;;3.03;29.68
65013;BME280;51715;39.432;-77.518;2023-03-14T05:26:02;99114.20;;;3.71;28.76
65013;BME280;51715;39.432;-77.518;2023-03-14T05:28:30;99106.41;;;3.75;28.95
65013;BME280;51715;39.432;-77.518;2023-03-14T05:30:59;99106.38;;;3.45;29.55
65013;BME280;51715;39.432;-77.518;2023-03-14T05:33:27;99098.40;;;3.74;29.16
65013;BME280;51715;39.432;-77.518;2023-03-14T05:35:55;99093.58;;;3.17;29.17
65013;BME280;51715;39.432;-77.518;2023-03-14T05:38:23;99090.73;;;3.02;30.08
65013;BME280;51715;39.432;-77.518;2023-03-14T05:40:52;99086.64;;;2.86;30.09
65013;BME280;51715;39.432;-77.518;2023-03-14T05:43:19;99081.24;;;2.91;30.34
65013;BME280;51715;39.432;-77.518;2023-03-14T05:45:47;99079.76;;;3.07;29.80
65013;BME280;51715;39.432;-77.518;2023-03-14T05:48:17;99068.28;;;2.70;30.70
65013;BME280;51715;39.432;-77.518;2023-03-14T05:50:45;99066.39;;;3.11;29.45
65013;BME280;51715;39.432;-77.518;2023-03-14T05:53:14;99066.50;;;3.23;30.11
65013;BME280;51715;39.432;-77.518;2023-03-14T05:55:43;99067.45;;;2.76;30.01
65013;BME280;51715;39.432;-77.518;2023-03-14T05:58:12;99074.00;;;2.61;30.16
65013;BME280;51715;39.432;-77.518;2023-03-14T06:00:40;99076.40;;;2.08;31.95
65013;BME280;51715;39.432;-77.518;2023-03-14T06:03:08;99074.81;;;2.76;30.48
65013;BME280;51715;39.432;-77.518;2023-03-14T06:05:36;99068.60;;;2.51;30.23
65013;BME280;51715;39.432;-77.518;2023-03-14T06:08:05;99071.13;;;2.22;30.95
65013;BME280;51715;39.432;-77.518;2023-03-14T06:10:34;99074.25;;;2.83;30.54
65013;BME280;51715;39.432;-77.518;2023-03-14T06:13:03;99075.61;;;1.59;32.28
65013;BME280;51715;39.432;-77.518;2023-03-14T06:15:31;99075.01;;;1.57;32.56
65013;BME280;51715;39.432;-77.518;2023-03-14T06:18:00;99073.66;;;1.79;31.99
65013;BME280;51715;39.432;-77.518;2023-03-14T06:20:27;99071.91;;;2.08;31.80
65013;BME280;51715;39.432;-77.518;2023-03-14T06:22:56;99072.03;;;2.39;31.78
65013;BME280;51715;39.432;-77.518;2023-03-14T06:25:24;99068.54;;;2.30;31.96
65013;BME280;51715;39.432;-77.518;2023-03-14T06:27:52;99072.25;;;2.63;31.19
65013;BME280;51715;39.432;-77.518;2023-03-14T06:30:21;99067.74;;;2.42;31.09
65013;BME280;51715;39.432;-77.518;2023-03-14T06:32:50;99058.65;;;2.11;31.88
65013;BME280;51715;39.432;-77.518;2023-03-14T06:35:19;99054.41;;;3.01;31.13
65013;BME280;51715;39.432;-77.518;2023-03-14T06:37:47;99053.68;;;2.26;31.52
65013;BME280;51715;39.432;-77.518;2023-03-14T06:40:15;99051.09;;;3.23;30.76
65013;BME280;51715;39.432;-77.518;2023-03-14T06:42:43;99038.42;;;2.76;30.40
65013;BME280;51715;39.432;-77.518;2023-03-14T06:45:12;99033.77;;;2.99;30.22
65013;BME280;51715;39.432;-77.518;2023-03-14T06:47:40;99035.05;;;2.81;30.72
65013;BME280;51715;39.432;-77.518;2023-03-14T06:50:10;99032.24;;;3.30;30.37
65013;BME280;51715;39.432;-77.518;2023-03-14T06:52:38;99028.03;;;2.84;31.09
65013;BME280;51715;39.432;-77.518;2023-03-14T06:55:07;99032.13;;;2.93;30.46
65013;BME280;51715;39.432;-77.518;2023-03-14T06:57:35;99033.71;;;2.91;30.59
65013;BME280;51715;39.432;-77.518;2023-03-14T07:00:05;99032.47;;;3.08;30.08
65013;BME280;51715;39.432;-77.518;2023-03-14T07:02:33;99036.16;;;3.01;30.73
65013;BME280;51715;39.432;-77.518;2023-03-14T07:05:01;99037.30;;;2.85;31.38
65013;BME280;51715;39.432;-77.518;2023-03-14T07:07:30;99038.93;;;2.46;31.62
65013;BME280;51715;39.432;-77.518;2023-03-14T07:09:58;99037.97;;;2.78;31.24
65013;BME280;51715;39.432;-77.518;2023-03-14T07:12:26;99034.12;;;3.00;31.48
65013;BME280;51715;39.432;-77.518;2023-03-14T07:14:55;99031.57;;;1.26;33.91
65013;BME280;51715;39.432;-77.518;2023-03-14T07:17:23;99030.22;;;1.22;34.34
65013;BME280;51715;39.432;-77.518;2023-03-14T07:19:52;99028.03;;;1.23;34.15
65013;BME280;51715;39.432;-77.518;2023-03-14T07:22:21;99026.71;;;0.84;34.83
65013;BME280;51715;39.432;-77.518;2023-03-14T07:24:49;99029.03;;;1.06;34.65
65013;BME280;51715;39.432;-77.518;2023-03-14T07:27:17;99027.57;;;1.05;35.03
65013;BME280;51715;39.432;-77.518;2023-03-14T07:29:45;99023.82;;;0.07;36.48
65013;BME280;51715;39.432;-77.518;2023-03-14T07:32:14;99010.24;;;-0.05;36.90
65013;BME280;51715;39.432;-77.518;2023-03-14T07:34:42;99009.64;;;0.78;35.64
65013;BME280;51715;39.432;-77.518;2023-03-14T07:37:10;99001.80;;;0.48;36.52
65013;BME280;51715;39.432;-77.518;2023-03-14T07:39:38;98999.83;;;0.61;35.88
65013;BME280;51715;39.432;-77.518;2023-03-14T07:42:07;98999.29;;;1.22;35.25
65013;BME280;51715;39.432;-77.518;2023-03-14T07:44:35;98997.79;;;0.87;34.89
65013;BME280;51715;39.432;-77.518;2023-03-14T07:47:12;98987.84;;;0.56;36.20
65013;BME280;51715;39.432;-77.518;2023-03-14T07:49:40;98990.60;;;1.67;35.25
65013;BME280;51715;39.432;-77.518;2023-03-14T07:52:08;98988.44;;;1.63;34.42
65013;BME280;51715;39.432;-77.518;2023-03-14T07:54:37;98991.59;;;2.10;33.73
65013;BME280;51715;39.432;-77.518;2023-03-14T07:57:05;98987.90;;;2.08;33.78
65013;BME280;51715;39.432;-77.518;2023-03-14T07:59:34;98987.53;;;2.18;34.30
65013;BME280;51715;39.432;-77.518;2023-03-14T08:02:02;98978.56;;;2.10;33.50
65013;BME280;51715;39.432;-77.518;2023-03-14T08:04:30;98977.70;;;1.53;34.27
65013;BME280;51715;39.432;-77.518;2023-03-14T08:06:58;98991.90;;;1.26;34.88
65013;BME280;51715;39.432;-77.518;2023-03-14T08:09:27;98986.03;;;1.15;35.85
65013;BME280;51715;39.432;-77.518;2023-03-14T08:11:55;98992.34;;;1.20;35.48
65013;BME280;51715;39.432;-77.518;2023-03-14T08:14:24;98996.95;;;1.24;35.48
65013;BME280;51715;39.432;-77.518;2023-03-14T08:16:52;98994.30;;;1.76;33.94
65013;BME280;51715;39.432;-77.518;2023-03-14T08:19:21;98988.35;;;2.45;33.36
65013;BME280;51715;39.432;-77.518;2023-03-14T08:21:49;98987.63;;;2.15;33.94
65013;BME280;51715;39.432;-77.518;2023-03-14T08:24:17;98987.71;;;1.61;35.13
65013;BME280;51715;39.432;-77.518;2023-03-14T08:26:45;98990.12;;;1.96;34.50
65013;BME280;51715;39.432;-77.518;2023-03-14T08:29:13;98989.35;;;1.72;33.99
65013;BME280;51715;39.432;-77.518;2023-03-14T08:31:42;98985.49;;;2.54;33.01
65013;BME280;51715;39.432;-77.518;2023-03-14T08:34:10;98976.92;;;2.44;33.40
65013;BME280;51715;39.432;-77.518;2023-03-14T08:36:38;98974.35;;;2.62;33.22
65013;BME280;51715;39.432;-77.518;2023-03-14T08:39:06;98972.06;;;2.76;32.91
65013;BME280;51715;39.432;-77.518;2023-03-14T08:41:35;98968.51;;;2.88;32.50
65013;BME280;51715;39.432;-77.518;2023-03-14T08:44:03;98963.69;;;2.02;33.33
65013;BME280;51715;39.432;-77.518;2023-03-14T08:46:32;98968.98;;;1.12;35.40
65013;BME280;51715;39.432;-77.518;2023-03-14T08:49:00;98968.15;;;0.83;35.10
65013;BME280;51715;39.432;-77.518;2023-03-14T08:51:29;98969.08;;;1.68;34.21
65013;BME280;51715;39.432;-77.518;2023-03-14T08:53:57;98966.53;;;2.04;33.23
65013;BME280;51715;39.432;-77.518;2023-03-14T08:56:25;98970.30;;;1.82;33.80
65013;BME280;51715;39.432;-77.518;2023-03-14T08:58:53;98974.34;;;1.96;33.40
65013;BME280;51715;39.432;-77.518;2023-03-14T09:01:21;98975.16;;;1.79;33.81
65013;BME280;51715;39.432;-77.518;2023-03-14T09:03:49;98976.34;;;2.03;33.55
65013;BME280;51715;39.432;-77.518;2023-03-14T09:06:18;98973.27;;;1.55;33.51
65013;BME280;51715;39.432;-77.518;2023-03-14T09:08:46;98972.33;;;1.85;33.40
65013;BME280;51715;39.432;-77.518;2023-03-14T09:11:16;98975.53;;;2.28;32.78
65013;BME280;51715;39.432;-77.518;2023-03-14T09:13:45;98973.90;;;2.14;33.25
65013;BME280;51715;39.432;-77.518;2023-03-14T09:16:13;98979.18;;;2.23;32.73
65013;BME280;51715;39.432;-77.518;2023-03-14T09:18:41;98979.38;;;2.35;32.84
65013;BME280;51715;39.432;-77.518;2023-03-14T09:21:09;98982.74;;;2.34;33.00
65013;BME280;51715;39.432;-77.518;2023-03-14T09:23:37;98986.58;;;1.97;33.13
65013;BME280;51715;39.432;-77.518;2023-03-14T09:26:07;98995.05;;;2.02;33.46
65013;BME280;51715;39.432;-77.518;2023-03-14T09:28:35;98992.22;;;2.44;33.40
65013;BME280;51715;39.432;-77.518;2023-03-14T09:31:06;99001.75;;;2.46;32.94
65013;BME280;51715;39.432;-77.518;2023-03-14T09:33:35;98999.40;;;1.76;33.94
65013;BME280;51715;39.432;-77.518;2023-03-14T09:36:04;99005.35;;;1.79;35.42
65013;BME280;51715;39.432;-77.518;2023-03-14T09:38:33;99001.88;;;2.32;34.42
65013;BME280;51715;39.432;-77.518;2023-03-14T09:41:03;98999.45;;;2.36;34.01
65013;BME280;51715;39.432;-77.518;2023-03-14T09:43:39;98995.24;;;2.29;34.77
65013;BME280;51715;39.432;-77.518;2023-03-14T09:46:10;98988.05;;;2.61;34.83
65013;BME280;51715;39.432;-77.518;2023-03-14T09:48:41;98993.03;;;3.06;34.33
65013;BME280;51715;39.432;-77.518;2023-03-14T09:51:14;98991.52;;;2.26;35.32
65013;BME280;51715;39.432;-77.518;2023-03-14T09:53:45;98991.57;;;1.62;37.06
65013;BME280;51715;39.432;-77.518;2023-03-14T09:56:16;98990.98;;;1.65;37.37
65013;BME280;51715;39.432;-77.518;2023-03-14T09:58:50;98994.45;;;2.12;36.41
65013;BME280;51715;39.432;-77.518;2023-03-14T10:01:22;98987.41;;;1.61;38.18
65013;BME280;51715;39.432;-77.518;2023-03-14T10:03:54;98987.46;;;2.07;37.63
65013;BME280;51715;39.432;-77.518;2023-03-14T10:06:25;98986.24;;;2.65;37.08
65013;BME280;51715;39.432;-77.518;2023-03-14T10:08:54;98981.35;;;1.56;40.09
65013;BME280;51715;39.432;-77.518;2023-03-14T10:11:25;98978.38;;;-0.01;43.09
65013;BME280;51715;39.432;-77.518;2023-03-14T10:14:05;98981.07;;;0.80;41.74
65013;BME280;51715;39.432;-77.518;2023-03-14T10:16:36;98982.50;;;1.38;40.84
65013;BME280;51715;39.432;-77.518;2023-03-14T10:19:09;98977.20;;;1.37;40.74
65013;BME280;51715;39.432;-77.518;2023-03-14T10:21:40;98986.02;;;1.36;39.75
65013;BME280;51715;39.432;-77.518;2023-03-14T10:24:18;98981.57;;;1.41;39.33
65013;BME280;51715;39.432;-77.518;2023-03-14T10:26:49;98980.63;;;1.86;38.99
65013;BME280;51715;39.432;-77.518;2023-03-14T10:29:19;98981.49;;;1.43;39.43
65013;BME280;51715;39.432;-77.518;2023-03-14T10:31:50;98985.40;;;0.57;40.84
65013;BME280;51715;39.432;-77.518;2023-03-14T10:34:24;98981.30;;;0.37;41.09
65013;BME280;51715;39.432;-77.518;2023-03-14T10:36:55;98987.85;;;1.31;39.71
65013;BME280;51715;39.432;-77.518;2023-03-14T10:39:28;98986.56;;;1.41;39.55
65013;BME280;51715;39.432;-77.518;2023-03-14T10:42:16;98975.90;;;1.11;39.04
65013;BME280;51715;39.432;-77.518;2023-03-14T10:44:47;98972.52;;;1.19;38.86
65013;BME280;51715;39.432;-77.518;2023-03-14T10:47:19;98975.26;;;1.15;39.31
65013;BME280;51715;39.432;-77.518;2023-03-14T10:49:48;98979.65;;;-0.60;42.25
65013;BME280;51715;39.432;-77.518;2023-03-14T10:52:21;98977.66;;;0.02;41.36
65013;BME280;51715;39.432;-77.518;2023-03-14T10:54:53;98989.74;;;-0.22;41.70
65013;BME280;51715;39.432;-77.518;2023-03-14T10:57:22;98975.53;;;0.10;41.10
65013;BME280;51715;39.432;-77.518;2023-03-14T10:59:52;98987.63;;;-0.70;42.24
65013;BME280;51715;39.432;-77.518;2023-03-14T11:02:39;98991.38;;;-0.47;41.89
65013;BME280;51715;39.432;-77.518;2023-03-14T11:05:23;98989.44;;;0.15;40.74
65013;BME280;51715;39.432;-77.518;2023-03-14T11:07:58;99002.09;;;-0.45;41.86
65013;BME280;51715;39.432;-77.518;2023-03-14T11:10:32;99022.74;;;-0.67;42.72
65013;BME280;51715;39.432;-77.518;2023-03-14T11:13:11;99016.26;;;-0.18;41.15
65013;BME280;51715;39.432;-77.518;2023-03-14T11:15:53;99011.71;;;-0.96;41.37
65013;BME280;51715;39.432;-77.518;2023-03-14T11:18:49;99019.51;;;-0.45;40.36
65013;BME280;51715;39.432;-77.518;2023-03-14T11:21:23;99026.11;;;-0.51;40.45
65013;BME280;51715;39.432;-77.518;2023-03-14T11:24:06;99030.55;;;-1.08;41.27
65013;BME280;51715;39.432;-77.518;2023-03-14T11:26:44;99042.17;;;-0.87;41.19
65013;BME280;51715;39.432;-77.518;2023-03-14T11:29:22;99047.94;;;-0.87;40.43
65013;BME280;51715;39.432;-77.518;2023-03-14T11:31:55;99048.25;;;-0.28;39.09
65013;BME280;51715;39.432;-77.518;2023-03-14T11:34:28;99042.93;;;0.04;37.83
65013;BME280;51715;39.432;-77.518;2023-03-14T11:37:00;99054.60;;;0.17;37.87
65013;BME280;51715;39.432;-77.518;2023-03-14T11:39:38;99066.32;;;-0.76;39.45
65013;BME280;51715;39.432;-77.518;2023-03-14T11:42:11;99064.64;;;-0.35;38.22
65013;BME280;51715;39.432;-77.518;2023-03-14T11:44:41;99065.40;;;0.24;37.19
65013;BME280;51715;39.432;-77.518;2023-03-14T11:47:13;99068.10;;;0.33;36.39
65013;BME280;51715;39.432;-77.518;2023-03-14T11:49:47;99070.86;;;0.42;36.07
65013;BME280;51715;39.432;-77.518;2023-03-14T11:52:20;99073.40;;;0.05;36.50
65013;BME280;51715;39.432;-77.518;2023-03-14T11:54:55;99070.56;;;-0.52;37.85
65013;BME280;51715;39.432;-77.518;2023-03-14T11:57:26;99073.56;;;-0.69;37.99
65013;BME280;51715;39.432;-77.518;2023-03-14T11:59:58;99075.52;;;-0.09;37.20
65013;BME280;51715;39.432;-77.518;2023-03-14T12:02:35;99075.68;;;0.19;36.59
65013;BME280;51715;39.432;-77.518;2023-03-14T12:05:32;99070.83;;;0.28;36.82
65013;BME280;51715;39.432;-77.518;2023-03-14T12:08:46;99080.36;;;1.25;35.02
65013;BME280;51715;39.432;-77.518;2023-03-14T12:11:20;99080.99;;;1.18;33.57
65013;BME280;51715;39.432;-77.518;2023-03-14T12:13:51;99074.79;;;0.30;33.91
65013;BME280;51715;39.432;-77.518;2023-03-14T12:16:30;99078.53;;;0.74;34.00
65013;BME280;51715;39.432;-77.518;2023-03-14T12:19:23;99092.39;;;0.29;34.24
65013;BME280;51715;39.432;-77.518;2023-03-14T12:21:57;99091.34;;;-0.33;34.97
65013;BME280;51715;39.432;-77.518;2023-03-14T12:24:28;99088.56;;;-1.04;36.20
65013;BME280;51715;39.432;-77.518;2023-03-14T12:26:59;99091.83;;;-0.66;36.01
65013;BME280;51715;39.432;-77.518;2023-03-14T12:29:28;99094.44;;;-0.45;36.56
65013;BME280;51715;39.432;-77.518;2023-03-14T12:32:28;99097.24;;;-0.30;36.12
65013;BME280;51715;39.432;-77.518;2023-03-14T12:34:57;99106.66;;;-0.49;36.79
65013;BME280;51715;39.432;-77.518;2023-03-14T12:37:37;99092.38;;;-1.11;37.39
65013;BME280;51715;39.432;-77.518;2023-03-14T12:40:18;99102.14;;;-0.57;37.26
65013;BME280;51715;39.432;-77.518;2023-03-14T12:42:57;99091.95;;;-0.58;36.97
65013;BME280;51715;39.432;-77.518;2023-03-14T12:45:29;99079.08;;;-1.09;38.22
65013;BME280;51715;39.432;-77.518;2023-03-14T12:48:10;99095.35;;;-0.06;36.77
65013;BME280;51715;39.432;-77.518;2023-03-14T12:50:43;99104.27;;;-0.29;35.72
65013;BME280;51715;39.432;-77.518;2023-03-14T12:53:57;99109.13;;;0.08;34.99
65013;BME280;51715;39.432;-77.518;2023-03-14T12:56:44;99122.88;;;0.39;33.55
65013;BME280;51715;39.432;-77.518;2023-03-14T12:59:26;99125.54;;;0.22;34.10
65013;BME280;51715;39.432;-77.518;2023-03-14T13:02:00;99122.06;;;-0.41;35.07
65013;BME280;51715;39.432;-77.518;2023-03-14T13:04:33;99134.90;;;0.61;33.05
65013;BME280;51715;39.432;-77.518;2023-03-14T13:07:03;99135.62;;;0.05;33.33
65013;BME280;51715;39.432;-77.518;2023-03-14T13:09:54;99131.51;;;-0.91;34.26